createdAt,value
2023-05-23T00:02:15.475Z,100.00
2023-05-23T00:04:44.282Z,100.00
2023-05-23T00:07:12.389Z,100.00
2023-05-23T00:09:39.975Z,100.00
2023-05-23T00:12:08.054Z,100.00
2023-05-23T00:14:35.781Z,100.00
2023-05-23T00:17:03.446Z,100.00
2023-05-23T00:19:36.452Z,100.00
2023-05-23T00:22:04.376Z,100.00
2023-05-23T00:24:31.974Z,100.00
2023-05-23T00:26:59.531Z,100.00
2023-05-23T00:29:27.060Z,100.00
2023-05-23T00:31:54.627Z,100.00
2023-05-23T00:34:22.226Z,100.00
2023-05-23T00:36:51.202Z,100.00
2023-05-23T00:39:20.973Z,100.00
2023-05-23T00:41:52.301Z,100.00
2023-05-23T00:44:21.517Z,100.00
2023-05-23T00:46:52.844Z,100.00
2023-05-23T00:49:21.074Z,100.00
2023-05-23T00:51:49.628Z,100.00
2023-05-23T00:54:19.888Z,100.00
2023-05-23T00:56:48.726Z,100.00
2023-05-23T00:59:17.076Z,100.00
2023-05-23T01:01:47.286Z,100.00
2023-05-23T01:04:16.706Z,100.00
2023-05-23T01:06:47.074Z,100.00
2023-05-23T01:09:15.460Z,100.00
2023-05-23T01:11:49.569Z,100.00
2023-05-23T01:14:21.884Z,100.00
2023-05-23T01:16:53.816Z,100.00
2023-05-23T01:19:42.098Z,100.00
2023-05-23T01:22:13.910Z,100.00
2023-05-23T01:24:49.850Z,100.00
2023-05-23T01:27:24.976Z,100.00
2023-05-23T01:29:57.543Z,100.00
2023-05-23T01:32:26.421Z,100.00
2023-05-23T01:34:54.722Z,100.00
2023-05-23T01:37:22.253Z,100.00
2023-05-23T01:39:50.027Z,100.00
2023-05-23T01:42:17.772Z,100.00
2023-05-23T01:44:46.619Z,100.00
2023-05-23T01:47:16.472Z,100.00
2023-05-23T01:49:45.181Z,100.00
2023-05-23T01:52:13.327Z,100.00
2023-05-23T01:54:42.557Z,100.00
2023-05-23T01:57:10.799Z,100.00
2023-05-23T01:59:39.214Z,100.00
2023-05-23T02:02:07.405Z,100.00
2023-05-23T02:04:36.411Z,100.00
2023-05-23T02:07:03.961Z,100.00
2023-05-23T02:09:31.488Z,100.00
2023-05-23T02:11:59.638Z,100.00
2023-05-23T02:14:28.428Z,100.00
2023-05-23T02:16:56.068Z,100.00
2023-05-23T02:19:23.803Z,100.00
2023-05-23T02:21:52.723Z,100.00
2023-05-23T02:24:20.831Z,100.00
2023-05-23T02:26:48.374Z,100.00
2023-05-23T02:29:16.519Z,100.00
2023-05-23T02:31:44.262Z,100.00
2023-05-23T02:34:11.895Z,100.00
2023-05-23T02:36:39.431Z,100.00
2023-05-23T02:39:08.331Z,100.00
2023-05-23T02:41:37.150Z,100.00
2023-05-23T02:44:04.766Z,100.00
2023-05-23T02:46:32.400Z,100.00
2023-05-23T02:48:59.982Z,100.00
2023-05-23T02:51:27.559Z,100.00
2023-05-23T02:53:55.132Z,100.00
2023-05-23T02:56:24.081Z,100.00
2023-05-23T02:58:52.593Z,100.00
2023-05-23T03:01:20.218Z,100.00
2023-05-23T03:03:47.882Z,100.00
2023-05-23T03:06:16.951Z,100.00
2023-05-23T03:08:44.743Z,100.00
2023-05-23T03:11:12.433Z,100.00
2023-05-23T03:13:41.510Z,100.00
2023-05-23T03:16:09.340Z,100.00
2023-05-23T03:18:37.192Z,100.00
2023-05-23T03:21:05.277Z,100.00
2023-05-23T03:23:32.976Z,100.00
2023-05-23T03:26:00.854Z,100.00
2023-05-23T03:28:28.530Z,100.00
2023-05-23T03:30:58.018Z,100.00
2023-05-23T03:33:25.853Z,100.00
2023-05-23T03:35:53.632Z,100.00
2023-05-23T03:38:21.853Z,100.00
2023-05-23T03:40:49.514Z,100.00
2023-05-23T03:43:17.455Z,100.00
2023-05-23T03:45:45.309Z,100.00
2023-05-23T03:48:14.521Z,100.00
2023-05-23T03:50:42.198Z,100.00
2023-05-23T03:53:09.916Z,100.00
2023-05-23T03:55:37.666Z,100.00
2023-05-23T03:58:05.606Z,100.00
2023-05-23T04:00:33.433Z,100.00
2023-05-23T04:03:01.213Z,100.00
2023-05-23T04:05:30.286Z,100.00
2023-05-23T04:08:01.372Z,100.00
2023-05-23T04:10:29.169Z,100.00
2023-05-23T04:12:56.939Z,100.00
2023-05-23T04:15:24.977Z,100.00
2023-05-23T04:17:53.092Z,100.00
2023-05-23T04:20:21.133Z,100.00
2023-05-23T04:22:50.060Z,100.00
2023-05-23T04:25:18.656Z,100.00
2023-05-23T04:27:47.330Z,100.00
2023-05-23T04:30:17.818Z,100.00
2023-05-23T04:32:46.128Z,100.00
2023-05-23T04:35:14.596Z,100.00
2023-05-23T04:37:42.534Z,100.00
2023-05-23T04:40:13.513Z,100.00
2023-05-23T04:42:42.378Z,100.00
2023-05-23T04:45:11.414Z,100.00
2023-05-23T04:47:39.078Z,100.00
2023-05-23T04:50:07.581Z,100.00
2023-05-23T04:52:35.191Z,100.00
2023-05-23T04:55:03.079Z,100.00
2023-05-23T04:57:32.281Z,100.00
2023-05-23T05:00:01.039Z,100.00
2023-05-23T05:02:28.691Z,100.00
2023-05-23T05:04:56.301Z,100.00
2023-05-23T05:07:23.925Z,100.00
2023-05-23T05:09:51.510Z,100.00
2023-05-23T05:12:19.057Z,100.00
2023-05-23T05:14:47.959Z,100.00
2023-05-23T05:17:15.522Z,100.00
2023-05-23T05:19:43.105Z,100.00
2023-05-23T05:22:10.697Z,100.00
2023-05-23T05:24:40.320Z,100.00
2023-05-23T05:27:09.456Z,100.00
2023-05-23T05:29:37.197Z,100.00
2023-05-23T05:32:08.989Z,100.00
2023-05-23T05:34:37.802Z,100.00
2023-05-23T05:37:06.123Z,100.00
2023-05-23T05:39:33.714Z,100.00
2023-05-23T05:42:03.628Z,100.00
2023-05-23T05:44:31.306Z,100.00
2023-05-23T05:46:58.874Z,100.00
2023-05-23T05:49:28.257Z,100.00
2023-05-23T05:51:55.859Z,100.00
2023-05-23T05:54:23.739Z,100.00
2023-05-23T05:56:51.267Z,100.00
2023-05-23T05:59:18.845Z,100.00
2023-05-23T06:01:46.467Z,100.00
2023-05-23T06:04:14.518Z,100.00
2023-05-23T06:06:43.704Z,100.00
2023-05-23T06:09:11.458Z,100.00
2023-05-23T06:11:41.156Z,100.00
2023-05-23T06:14:09.498Z,100.00
2023-05-23T06:16:37.571Z,100.00
2023-05-23T06:19:05.200Z,100.00
2023-05-23T06:21:33.156Z,100.00
2023-05-23T06:24:02.046Z,100.00
2023-05-23T06:26:29.653Z,100.00
2023-05-23T06:28:57.250Z,100.00
2023-05-23T06:31:24.854Z,100.00
2023-05-23T06:33:52.447Z,100.00
2023-05-23T06:36:20.075Z,100.00
2023-05-23T06:38:48.640Z,100.00
2023-05-23T06:41:17.549Z,100.00
2023-05-23T06:43:45.151Z,100.00
2023-05-23T06:46:12.797Z,100.00
2023-05-23T06:48:40.424Z,100.00
2023-05-23T06:51:08.120Z,100.00
2023-05-23T06:53:35.758Z,100.00
2023-05-23T06:56:03.387Z,100.00
2023-05-23T06:58:32.293Z,100.00
2023-05-23T07:00:59.923Z,100.00
2023-05-23T07:03:27.598Z,100.00
2023-05-23T07:05:55.211Z,100.00
2023-05-23T07:08:22.813Z,100.00
2023-05-23T07:10:50.490Z,100.00
2023-05-23T07:13:18.130Z,100.00
2023-05-23T07:15:47.012Z,100.00
2023-05-23T07:18:14.661Z,100.00
2023-05-23T07:20:42.474Z,100.00
2023-05-23T07:23:10.435Z,100.00
2023-05-23T07:25:42.223Z,100.00
2023-05-23T07:28:14.825Z,100.00
2023-05-23T07:30:43.106Z,100.00
2023-05-23T07:33:12.117Z,100.00
2023-05-23T07:35:39.673Z,100.00
2023-05-23T07:38:07.393Z,100.00
2023-05-23T07:40:35.074Z,100.00
2023-05-23T07:43:02.644Z,100.00
2023-05-23T07:45:30.167Z,100.00
2023-05-23T07:47:57.824Z,100.00
2023-05-23T07:50:27.757Z,100.00
2023-05-23T07:52:55.883Z,100.00
2023-05-23T07:55:24.347Z,100.00
2023-05-23T07:57:52.556Z,100.00
2023-05-23T08:00:20.687Z,100.00
2023-05-23T08:02:48.291Z,100.00
2023-05-23T08:05:16.213Z,100.00
2023-05-23T08:07:45.423Z,100.00
2023-05-23T08:10:13.019Z,100.00
2023-05-23T08:12:40.575Z,100.00
2023-05-23T08:15:09.360Z,100.00
2023-05-23T08:17:37.670Z,100.00
2023-05-23T08:20:06.060Z,100.00
2023-05-23T08:22:33.670Z,100.00
2023-05-23T08:25:03.169Z,100.00
2023-05-23T08:27:31.361Z,100.00
2023-05-23T08:29:59.677Z,100.00
2023-05-23T08:32:27.419Z,100.00
2023-05-23T08:34:55.002Z,100.00
2023-05-23T08:37:22.589Z,100.00
2023-05-23T08:39:50.242Z,100.00
2023-05-23T08:42:19.236Z,100.00
2023-05-23T08:44:47.314Z,100.00
2023-05-23T08:47:17.429Z,100.00
2023-05-23T08:49:45.250Z,100.00
2023-05-23T08:52:13.772Z,100.00
2023-05-23T08:54:50.902Z,100.00
2023-05-23T08:57:19.849Z,100.00
2023-05-23T08:59:48.135Z,100.00
2023-05-23T09:02:16.054Z,100.00
2023-05-23T09:04:43.646Z,100.00
2023-05-23T09:07:12.810Z,100.00
2023-05-23T09:09:40.389Z,100.00
2023-05-23T09:12:08.082Z,100.00
2023-05-23T09:14:37.352Z,100.00
2023-05-23T09:17:05.134Z,100.00
2023-05-23T09:19:33.403Z,100.00
2023-05-23T09:22:03.408Z,100.00
2023-05-23T09:24:35.887Z,100.00
2023-05-23T09:27:03.711Z,100.00
2023-05-23T09:29:31.773Z,100.00
2023-05-23T09:32:11.770Z,100.00
2023-05-23T09:34:42.026Z,100.00
2023-05-23T09:37:09.727Z,100.00
2023-05-23T09:39:38.792Z,100.00
2023-05-23T09:42:07.188Z,100.00
2023-05-23T09:44:42.472Z,100.00
2023-05-23T09:47:11.418Z,100.00
2023-05-23T09:49:40.446Z,100.00
2023-05-23T09:52:08.091Z,100.00
2023-05-23T09:54:35.744Z,100.00
2023-05-23T09:57:05.842Z,100.00
2023-05-23T09:59:35.980Z,100.00
2023-05-23T10:02:04.562Z,100.00
2023-05-23T10:04:35.761Z,100.00
2023-05-23T10:07:07.134Z,100.00
2023-05-23T10:09:37.651Z,100.00
2023-05-23T10:12:41.611Z,100.00
2023-05-23T10:15:11.063Z,99.83
2023-05-23T10:17:48.032Z,100.00
2023-05-23T10:20:17.749Z,100.00
2023-05-23T10:22:45.779Z,100.00
2023-05-23T10:25:13.619Z,98.86
2023-05-23T10:27:41.487Z,98.99
2023-05-23T10:30:10.547Z,98.11
2023-05-23T10:32:40.397Z,93.20
2023-05-23T10:35:13.773Z,95.27
2023-05-23T10:37:49.598Z,92.98
2023-05-23T10:40:22.906Z,92.15
2023-05-23T10:42:54.162Z,90.81
2023-05-23T10:45:23.320Z,90.56
2023-05-23T10:47:52.426Z,96.54
2023-05-23T10:50:33.121Z,98.87
2023-05-23T10:53:03.306Z,98.13
2023-05-23T10:55:33.562Z,100.00
2023-05-23T10:58:11.165Z,100.00
2023-05-23T11:00:39.158Z,93.45
2023-05-23T11:03:09.060Z,88.96
2023-05-23T11:05:38.708Z,89.62
2023-05-23T11:08:13.928Z,93.25
2023-05-23T11:10:57.434Z,94.00
2023-05-23T11:13:25.309Z,96.82
2023-05-23T11:15:53.239Z,95.19
2023-05-23T11:18:22.102Z,93.66
2023-05-23T11:20:54.104Z,96.35
2023-05-23T11:23:23.932Z,92.70
2023-05-23T11:25:52.396Z,93.44
2023-05-23T11:28:20.570Z,96.15
2023-05-23T11:30:49.281Z,94.88
2023-05-23T11:33:18.388Z,93.30
2023-05-23T11:35:47.063Z,89.39
2023-05-23T11:38:15.362Z,83.64
2023-05-23T11:40:45.527Z,83.76
2023-05-23T11:43:15.090Z,83.37
2023-05-23T11:45:42.761Z,91.10
2023-05-23T11:48:11.758Z,91.31
2023-05-23T11:50:46.865Z,92.01
2023-05-23T11:53:17.116Z,88.26
2023-05-23T11:55:53.106Z,79.85
2023-05-23T11:58:21.985Z,79.11
2023-05-23T12:00:49.574Z,75.87
2023-05-23T12:03:17.376Z,80.88
2023-05-23T12:05:46.087Z,86.82
2023-05-23T12:08:15.014Z,85.48
2023-05-23T12:10:54.723Z,86.67
2023-05-23T12:13:25.129Z,84.55
2023-05-23T12:15:56.148Z,80.11
2023-05-23T12:18:24.152Z,76.03
2023-05-23T12:20:53.137Z,77.11
2023-05-23T12:23:22.486Z,76.86
2023-05-23T12:25:55.706Z,76.53
2023-05-23T12:28:35.351Z,75.88
2023-05-23T12:31:10.201Z,73.97
2023-05-23T12:33:39.551Z,66.18
2023-05-23T12:36:07.559Z,68.79
2023-05-23T12:38:37.820Z,78.44
2023-05-23T12:41:11.456Z,66.50
2023-05-23T12:43:40.114Z,60.92
2023-05-23T12:46:08.436Z,59.14
2023-05-23T12:48:35.960Z,53.18
2023-05-23T12:51:04.154Z,53.29
2023-05-23T12:53:32.010Z,51.96
2023-05-23T12:55:59.582Z,53.30
2023-05-23T12:58:30.938Z,53.44
2023-05-23T13:00:59.063Z,50.66
2023-05-23T13:03:26.951Z,50.28
2023-05-23T13:05:55.064Z,48.35
2023-05-23T13:08:22.691Z,46.81
2023-05-23T13:10:50.869Z,45.31
2023-05-23T13:13:18.477Z,46.58
2023-05-23T13:15:49.704Z,49.16
2023-05-23T13:18:18.512Z,57.61
2023-05-23T13:20:46.634Z,63.51
2023-05-23T13:23:14.417Z,58.87
2023-05-23T13:25:42.745Z,58.64
2023-05-23T13:28:11.077Z,54.67
2023-05-23T13:30:38.782Z,53.45
2023-05-23T13:33:07.915Z,49.83
2023-05-23T13:35:35.528Z,49.24
2023-05-23T13:38:03.120Z,49.82
2023-05-23T13:40:30.737Z,50.58
2023-05-23T13:42:58.302Z,53.46
2023-05-23T13:45:25.856Z,59.56
2023-05-23T13:47:53.620Z,63.73
2023-05-23T13:50:22.656Z,61.12
2023-05-23T13:52:50.262Z,63.69
2023-05-23T13:55:18.578Z,63.46
2023-05-23T13:57:47.004Z,64.41
2023-05-23T14:00:16.123Z,66.52
2023-05-23T14:02:43.773Z,59.30
2023-05-23T14:05:11.347Z,61.77
2023-05-23T14:07:41.263Z,65.83
2023-05-23T14:10:09.661Z,70.70
2023-05-23T14:12:37.741Z,74.08
2023-05-23T14:15:05.965Z,73.71
2023-05-23T14:17:33.546Z,75.93
2023-05-23T14:20:01.199Z,73.95
2023-05-23T14:22:28.803Z,74.98
2023-05-23T14:24:58.724Z,65.08
2023-05-23T14:27:27.716Z,57.78
2023-05-23T14:29:55.315Z,55.76
2023-05-23T14:32:23.221Z,61.77
2023-05-23T14:34:50.767Z,69.69
2023-05-23T14:37:37.048Z,74.92
2023-05-23T14:40:06.658Z,80.37
2023-05-23T14:42:34.232Z,83.04
2023-05-23T14:45:01.841Z,87.28
2023-05-23T14:47:29.485Z,88.25
2023-05-23T14:49:57.068Z,87.34
2023-05-23T14:52:24.837Z,81.74
2023-05-23T14:54:52.436Z,80.22
2023-05-23T14:57:21.476Z,83.43
2023-05-23T14:59:49.019Z,84.54
2023-05-23T15:02:17.102Z,82.19
2023-05-23T15:04:44.716Z,74.57
2023-05-23T15:07:13.575Z,71.50
2023-05-23T15:09:41.208Z,58.99
2023-05-23T15:12:09.831Z,58.53
2023-05-23T15:14:38.747Z,60.47
2023-05-23T15:17:08.520Z,61.24
2023-05-23T15:19:37.093Z,58.00
2023-05-23T15:22:05.506Z,59.68
2023-05-23T15:27:15.710Z,68.25
2023-05-23T15:29:47.810Z,69.84
2023-05-23T15:32:15.494Z,71.33
2023-05-23T15:34:43.857Z,73.34
2023-05-23T15:37:11.431Z,72.62
2023-05-23T15:39:38.973Z,74.58
2023-05-23T15:42:06.979Z,75.37
2023-05-23T15:44:34.601Z,76.83
2023-05-23T15:47:03.546Z,81.01
2023-05-23T15:49:31.109Z,83.64
2023-05-23T15:51:58.645Z,82.48
2023-05-23T15:54:26.357Z,84.90
2023-05-23T15:56:53.923Z,88.00
2023-05-23T15:59:21.488Z,89.01
2023-05-23T16:01:49.161Z,90.71
2023-05-23T16:04:18.191Z,87.71
2023-05-23T16:06:45.814Z,85.73
2023-05-23T16:09:13.452Z,85.44
2023-05-23T16:11:41.216Z,84.64
2023-05-23T16:14:08.855Z,87.93
2023-05-23T16:16:36.524Z,90.54
2023-05-23T16:19:04.204Z,94.18
2023-05-23T16:21:33.312Z,94.72
2023-05-23T16:24:01.146Z,92.13
2023-05-23T16:26:28.801Z,92.77
2023-05-23T16:28:56.339Z,100.00
2023-05-23T16:31:27.247Z,100.00
2023-05-23T16:33:55.206Z,100.00
2023-05-23T16:36:23.202Z,100.00
2023-05-23T16:38:54.089Z,100.00
2023-05-23T16:41:23.151Z,100.00
2023-05-23T16:43:51.707Z,100.00
2023-05-23T16:46:22.209Z,100.00
2023-05-23T16:48:50.115Z,100.00
2023-05-23T16:51:17.871Z,100.00
2023-05-23T16:53:45.574Z,100.00
2023-05-23T16:56:14.710Z,100.00
2023-05-23T16:58:42.362Z,100.00
2023-05-23T17:01:10.093Z,100.00
2023-05-23T17:03:37.967Z,100.00
2023-05-23T17:06:05.907Z,100.00
2023-05-23T17:08:34.688Z,100.00
2023-05-23T17:11:02.431Z,100.00
2023-05-23T17:13:32.720Z,100.00
2023-05-23T17:16:00.567Z,100.00
2023-05-23T17:18:28.274Z,100.00
2023-05-23T17:20:55.957Z,100.00
2023-05-23T17:23:24.025Z,100.00
2023-05-23T17:25:51.709Z,100.00
2023-05-23T17:28:19.611Z,100.00
2023-05-23T17:30:48.690Z,100.00
2023-05-23T17:33:16.495Z,100.00
2023-05-23T17:35:44.460Z,100.00
2023-05-23T17:38:12.408Z,100.00
2023-05-23T17:40:40.212Z,100.00
2023-05-23T17:43:08.392Z,100.00
2023-05-23T17:45:36.230Z,100.00
2023-05-23T17:48:05.716Z,100.00
2023-05-23T17:50:33.481Z,100.00
2023-05-23T17:53:03.413Z,100.00
2023-05-23T17:55:31.907Z,100.00
2023-05-23T17:57:59.718Z,100.00
2023-05-23T18:00:27.479Z,100.00
2023-05-23T18:02:55.198Z,100.00
2023-05-23T18:05:24.222Z,100.00
2023-05-23T18:07:51.920Z,100.00
2023-05-23T18:10:19.704Z,100.00
2023-05-23T18:12:47.638Z,100.00
2023-05-23T18:15:15.459Z,100.00
2023-05-23T18:17:43.260Z,100.00
2023-05-23T18:20:12.737Z,100.00
2023-05-23T18:22:41.700Z,100.00
2023-05-23T18:25:10.156Z,100.00
2023-05-23T18:27:37.867Z,100.00
2023-05-23T18:30:06.566Z,100.00
2023-05-23T18:32:34.343Z,100.00
2023-05-23T18:35:02.014Z,100.00
2023-05-23T18:37:29.760Z,100.00
2023-05-23T18:40:00.262Z,100.00
2023-05-23T18:42:27.952Z,100.00
2023-05-23T18:44:55.742Z,100.00
2023-05-23T18:47:23.778Z,100.00
2023-05-23T18:49:52.142Z,100.00
2023-05-23T18:52:19.892Z,100.00
2023-05-23T18:54:48.263Z,100.00
2023-05-23T18:57:17.718Z,100.00
2023-05-23T18:59:45.443Z,100.00
2023-05-23T19:02:13.403Z,100.00
2023-05-23T19:04:41.934Z,100.00
2023-05-23T19:07:09.713Z,100.00
2023-05-23T19:09:37.497Z,100.00
2023-05-23T19:12:05.484Z,100.00
2023-05-23T19:14:34.537Z,100.00
2023-05-23T19:17:06.019Z,100.00
2023-05-23T19:19:34.621Z,100.00
2023-05-23T19:22:02.493Z,100.00
2023-05-23T19:24:30.203Z,100.00
2023-05-23T19:26:57.970Z,100.00
2023-05-23T19:29:25.698Z,100.00
2023-05-23T19:31:55.201Z,100.00
2023-05-23T19:34:23.023Z,100.00
2023-05-23T19:36:51.378Z,100.00
2023-05-23T19:39:19.188Z,100.00
2023-05-23T19:41:46.975Z,100.00
2023-05-23T19:44:14.660Z,100.00
2023-05-23T19:46:42.377Z,100.00
2023-05-23T19:49:12.032Z,100.00
2023-05-23T19:51:39.799Z,100.00
2023-05-23T19:54:07.599Z,100.00
2023-05-23T19:56:36.160Z,100.00
2023-05-23T19:59:03.843Z,100.00
2023-05-23T20:01:33.666Z,100.00
2023-05-23T20:04:01.694Z,100.00
2023-05-23T20:06:31.241Z,100.00
2023-05-23T20:08:58.989Z,100.00
2023-05-23T20:11:28.944Z,100.00
2023-05-23T20:13:56.631Z,100.00
2023-05-23T20:16:24.378Z,100.00
2023-05-23T20:18:52.181Z,100.00
2023-05-23T20:21:20.002Z,100.00
2023-05-23T20:23:49.233Z,100.00
2023-05-23T20:26:16.998Z,100.00
2023-05-23T20:28:44.760Z,100.00
2023-05-23T20:31:12.787Z,100.00
2023-05-23T20:33:40.598Z,100.00
2023-05-23T20:36:08.536Z,100.00
2023-05-23T20:38:36.280Z,100.00
2023-05-23T20:41:06.653Z,100.00
2023-05-23T20:43:37.138Z,100.00
2023-05-23T20:46:06.143Z,100.00
2023-05-23T20:48:34.434Z,100.00
2023-05-23T20:51:02.334Z,100.00
2023-05-23T20:53:31.435Z,100.00
2023-05-23T20:55:59.173Z,100.00
2023-05-23T20:58:28.428Z,100.00
2023-05-23T21:00:56.159Z,100.00
2023-05-23T21:03:23.915Z,100.00
2023-05-23T21:05:51.717Z,100.00
2023-05-23T21:08:19.387Z,100.00
2023-05-23T21:10:50.672Z,100.00
2023-05-23T21:13:19.344Z,100.00
2023-05-23T21:15:48.586Z,100.00
2023-05-23T21:18:16.313Z,100.00
2023-05-23T21:20:44.221Z,100.00
2023-05-23T21:23:12.143Z,100.00
2023-05-23T21:25:40.052Z,100.00
2023-05-23T21:28:07.787Z,100.00
2023-05-23T21:30:35.511Z,100.00
2023-05-23T21:33:04.768Z,100.00
2023-05-23T21:35:32.474Z,100.00
2023-05-23T21:38:00.196Z,100.00
2023-05-23T21:40:27.893Z,100.00
2023-05-23T21:42:55.634Z,100.00
2023-05-23T21:45:23.557Z,100.00
2023-05-23T21:47:51.321Z,100.00
2023-05-23T21:50:20.452Z,100.00
2023-05-23T21:52:48.137Z,100.00
2023-05-23T21:55:15.910Z,100.00
2023-05-23T21:57:43.605Z,100.00
2023-05-23T22:00:13.060Z,100.00
2023-05-23T22:02:41.079Z,100.00
2023-05-23T22:05:09.357Z,100.00
2023-05-23T22:07:38.430Z,100.00
2023-05-23T22:10:07.320Z,100.00
2023-05-23T22:12:35.079Z,100.00
2023-05-23T22:15:03.037Z,100.00
2023-05-23T22:17:34.034Z,100.00
2023-05-23T22:20:02.323Z,100.00
2023-05-23T22:22:30.030Z,100.00
2023-05-23T22:24:59.095Z,100.00
2023-05-23T22:27:27.317Z,100.00
2023-05-23T22:29:55.022Z,100.00
2023-05-23T22:32:22.837Z,100.00
2023-05-23T22:34:50.683Z,100.00
2023-05-23T22:37:18.451Z,100.00
2023-05-23T22:39:46.215Z,100.00
2023-05-23T22:42:15.459Z,100.00
2023-05-23T22:44:43.769Z,100.00
2023-05-23T22:47:13.788Z,100.00
2023-05-23T22:49:42.559Z,100.00
2023-05-23T22:52:10.341Z,100.00
2023-05-23T22:54:38.179Z,100.00
2023-05-23T22:57:06.302Z,100.00
2023-05-23T22:59:35.513Z,100.00
2023-05-23T23:02:03.274Z,100.00
2023-05-23T23:04:31.438Z,100.00
2023-05-23T23:07:01.296Z,100.00
2023-05-23T23:09:29.063Z,100.00
2023-05-23T23:11:56.793Z,100.00
2023-05-23T23:14:24.659Z,100.00
2023-05-23T23:16:53.810Z,100.00
2023-05-23T23:19:21.859Z,100.00
2023-05-23T23:21:49.589Z,100.00
2023-05-23T23:24:17.764Z,100.00
2023-05-23T23:26:45.467Z,100.00
2023-05-23T23:29:13.244Z,100.00
2023-05-23T23:31:40.996Z,100.00
2023-05-23T23:34:10.090Z,100.00
2023-05-23T23:36:39.726Z,100.00
2023-05-23T23:39:07.623Z,100.00
2023-05-23T23:41:35.418Z,100.00
2023-05-23T23:44:03.128Z,100.00
2023-05-23T23:46:31.231Z,100.00
2023-05-23T23:48:59.027Z,100.00
2023-05-23T23:51:28.260Z,100.00
2023-05-23T23:53:56.527Z,100.00
2023-05-23T23:56:24.729Z,100.00
2023-05-23T23:58:52.520Z,100.00
